Time;durP1;ratioP1;P1;durP2;ratioP2;P2;SDS_P1;SDS_P2;PMS_P1;PMS_P2;Temp;Humidity;BMP_temperature;BMP_pressure;BME280_temperature;BME280_humidity;BME280_pressure;Samples;Min_cycle;Max_cycle;Signal;HPM_P1;HPM_P2
2024/01/06 00:01:53;;;;;;;18.15;10.27;;;;;;;4.87;100.00;100148.25;5070434;28;20080;-45
2024/01/06 00:04:25;;;;;;;17.15;9.50;;;;;;;4.85;100.00;100137.06;5071918;28;20032;-46
2024/01/06 00:06:53;;;;;;;18.13;9.50;;;;;;;4.86;100.00;100143.94;5072568;28;20421;-47
2024/01/06 00:09:21;;;;;;;14.95;8.43;;;;;;;4.76;100.00;100148.81;5072235;28;20094;-47
2024/01/06 00:11:50;;;;;;;16.10;9.30;;;;;;;4.79;100.00;100158.22;5072141;28;20127;-45
2024/01/06 00:14:18;;;;;;;15.73;8.50;;;;;;;4.77;100.00;100160.88;5071318;28;20491;-47
2024/01/06 00:16:46;;;;;;;15.63;8.77;;;;;;;4.76;100.00;100160.97;5068678;28;20056;-46
2024/01/06 00:19:14;;;;;;;15.65;8.50;;;;;;;4.74;100.00;100164.53;5069736;28;20377;-46
2024/01/06 00:21:44;;;;;;;15.57;8.80;;;;;;;4.77;100.00;100163.50;5069896;28;20056;-45
2024/01/06 00:24:12;;;;;;;15.80;8.57;;;;;;;4.72;100.00;100168.13;5067327;28;20055;-45
2024/01/06 00:26:40;;;;;;;16.33;8.70;;;;;;;4.73;100.00;100170.66;5071511;28;20048;-46
2024/01/06 00:29:11;;;;;;;16.23;8.60;;;;;;;4.81;100.00;100174.59;5071936;28;20047;-45
2024/01/06 00:31:39;;;;;;;16.45;8.85;;;;;;;4.68;100.00;100170.03;5071862;28;20049;-46
2024/01/06 00:34:07;;;;;;;14.90;8.35;;;;;;;4.70;100.00;100180.38;5071752;28;20088;-46
2024/01/06 00:36:36;;;;;;;17.35;9.18;;;;;;;4.68;100.00;100179.63;5069433;28;20055;-46
2024/01/06 00:39:05;;;;;;;16.88;8.65;;;;;;;4.65;100.00;100182.34;5068475;28;20048;-57
2024/01/06 00:41:34;;;;;;;14.77;8.13;;;;;;;4.62;100.00;100192.94;5071867;28;20082;-57
2024/01/06 00:44:02;;;;;;;15.13;8.25;;;;;;;4.52;100.00;100200.38;5071919;28;20040;-57
2024/01/06 00:46:30;;;;;;;14.18;7.70;;;;;;;4.46;100.00;100198.06;5072009;28;20538;-57
2024/01/06 00:49:01;;;;;;;14.30;7.60;;;;;;;4.44;100.00;100192.13;5071613;28;20060;-57
2024/01/06 00:51:29;;;;;;;14.00;7.32;;;;;;;4.41;100.00;100193.09;5071774;28;20407;-48
2024/01/06 00:53:57;;;;;;;13.23;7.07;;;;;;;4.39;100.00;100195.78;5070301;28;20508;-45
2024/01/06 00:56:30;;;;;;;14.88;7.97;;;;;;;4.30;100.00;100192.81;5071661;28;20040;-46
2024/01/06 00:59:01;;;;;;;15.05;8.15;;;;;;;4.26;100.00;100193.88;5071463;28;20143;-47
2024/01/06 01:01:29;;;;;;;13.90;7.30;;;;;;;4.31;100.00;100195.31;5068459;28;20050;-46
2024/01/06 01:03:57;;;;;;;14.90;7.88;;;;;;;4.31;100.00;100200.53;5067956;28;20048;-46
2024/01/06 01:06:25;;;;;;;13.82;7.43;;;;;;;4.25;100.00;100195.63;5071712;28;20131;-46
2024/01/06 01:08:54;;;;;;;14.88;8.00;;;;;;;4.21;100.00;100200.16;5071470;28;20036;-45
2024/01/06 01:11:22;;;;;;;15.88;8.88;;;;;;;4.19;100.00;100201.97;5070397;28;20052;-48
2024/01/06 01:13:52;;;;;;;15.88;8.30;;;;;;;4.21;100.00;100202.75;5071708;28;20119;-50
2024/01/06 01:16:20;;;;;;;16.15;8.90;;;;;;;4.15;100.00;100205.63;5074810;28;20471;-57
2024/01/06 01:18:48;;;;;;;16.00;8.15;;;;;;;4.10;100.00;100215.41;5075680;28;20047;-46
2024/01/06 01:21:17;;;;;;;17.45;9.63;;;;;;;4.09;100.00;100218.97;5075282;28;20048;-47
2024/01/06 01:23:45;;;;;;;17.30;9.07;;;;;;;4.10;100.00;100219.78;5075170;28;20045;-57
2024/01/06 01:26:13;;;;;;;15.27;8.65;;;;;;;4.07;100.00;100221.63;5075551;28;20052;-57
2024/01/06 01:28:42;;;;;;;16.60;9.10;;;;;;;4.11;100.00;100224.09;5075097;28;20048;-57
2024/01/06 01:31:13;;;;;;;17.55;9.45;;;;;;;4.09;100.00;100231.13;5075431;28;20079;-57
2024/01/06 01:33:41;;;;;;;14.60;8.02;;;;;;;4.10;100.00;100231.03;5075221;28;20700;-57
2024/01/06 01:36:09;;;;;;;17.33;9.13;;;;;;;4.13;100.00;100243.94;5075161;28;20436;-47
2024/01/06 01:38:41;;;;;;;16.83;9.10;;;;;;;4.12;100.00;100241.38;5074970;28;20048;-57
2024/01/06 01:41:09;;;;;;;16.73;8.65;;;;;;;4.15;100.00;100241.25;5074910;28;20048;-46
2024/01/06 01:43:37;;;;;;;15.57;8.98;;;;;;;4.11;100.00;100240.53;5074998;28;20044;-57
2024/01/06 01:46:06;;;;;;;16.55;9.18;;;;;;;4.08;100.00;100243.28;5074968;28;20556;-45
2024/01/06 01:48:35;;;;;;;15.05;8.52;;;;;;;4.04;100.00;100244.34;5074491;28;20430;-46
2024/01/06 01:51:05;;;;;;;15.57;8.65;;;;;;;4.09;100.00;100252.78;5074690;28;20490;-57
2024/01/06 01:53:33;;;;;;;17.15;9.77;;;;;;;4.06;100.00;100250.31;5074730;28;20063;-57
2024/01/06 01:56:04;;;;;;;17.63;9.23;;;;;;;4.04;100.00;100262.56;5074957;28;20164;-57
2024/01/06 01:58:32;;;;;;;18.55;9.73;;;;;;;4.05;100.00;100269.47;5074892;28;20056;-57
2024/01/06 02:01:00;;;;;;;15.88;8.82;;;;;;;4.04;100.00;100266.00;5074599;28;20082;-57
2024/01/06 02:03:31;;;;;;;17.70;10.18;;;;;;;4.01;100.00;100273.13;5074724;28;20367;-57
2024/01/06 02:06:00;;;;;;;19.48;9.55;;;;;;;3.96;100.00;100278.53;5074596;28;20052;-57
2024/01/06 02:08:30;;;;;;;19.27;10.10;;;;;;;3.97;100.00;100285.44;5074634;28;20093;-57
2024/01/06 02:11:01;;;;;;;18.00;9.82;;;;;;;4.02;100.00;100290.41;5074263;28;20044;-57
2024/01/06 02:13:35;;;;;;;18.80;10.15;;;;;;;4.03;100.00;100290.34;5073312;28;20062;-57
2024/01/06 02:16:04;;;;;;;19.05;10.57;;;;;;;4.01;100.00;100293.94;5074404;28;20044;-57
2024/01/06 02:18:33;;;;;;;18.42;10.40;;;;;;;4.02;100.00;100293.88;5074227;28;20049;-57
2024/01/06 02:21:04;;;;;;;20.08;11.57;;;;;;;3.93;100.00;100299.50;5072703;28;20087;-57
2024/01/06 02:23:36;;;;;;;21.85;11.50;;;;;;;3.98;100.00;100301.88;5074236;28;20058;-57
2024/01/06 02:26:05;;;;;;;19.45;10.38;;;;;;;3.93;100.00;100303.84;5072351;28;20076;-57
2024/01/06 02:28:35;;;;;;;19.88;10.35;;;;;;;3.88;100.00;100302.28;5069114;28;20040;-57
2024/01/06 02:31:03;;;;;;;20.23;10.88;;;;;;;3.90;100.00;100302.25;5072549;28;20040;-57
2024/01/06 02:33:31;;;;;;;22.50;11.73;;;;;;;3.89;100.00;100310.97;5073833;28;20048;-57
2024/01/06 02:36:00;;;;;;;20.92;11.13;;;;;;;3.86;100.00;100311.94;5074228;28;20071;-57
2024/01/06 02:38:28;;;;;;;22.42;12.30;;;;;;;3.88;100.00;100319.69;5074018;28;20508;-57
2024/01/06 02:40:57;;;;;;;23.00;11.70;;;;;;;3.83;100.00;100324.25;5073802;28;20043;-57
2024/01/06 02:43:26;;;;;;;21.65;11.27;;;;;;;3.83;100.00;100324.25;5073960;28;20123;-57
2024/01/06 02:45:54;;;;;;;20.35;10.68;;;;;;;3.82;100.00;100326.00;5072391;28;20040;-57
2024/01/06 02:48:22;;;;;;;18.20;10.43;;;;;;;3.78;100.00;100329.66;5073667;28;20056;-57
2024/01/06 02:50:51;;;;;;;22.35;11.57;;;;;;;3.83;100.00;100342.44;5072162;28;20049;-57
2024/01/06 02:53:19;;;;;;;21.30;11.23;;;;;;;3.85;100.00;100346.66;5073342;28;20044;-57
2024/01/06 02:55:47;;;;;;;20.10;10.90;;;;;;;3.80;100.00;100343.44;5073327;28;20127;-57
2024/01/06 02:58:17;;;;;;;20.75;11.68;;;;;;;3.81;100.00;100339.09;5073361;28;20071;-57
2024/01/06 03:00:45;;;;;;;23.08;10.95;;;;;;;3.84;100.00;100352.78;5073360;28;20037;-58
2024/01/06 03:03:13;;;;;;;23.85;13.35;;;;;;;3.84;100.00;100350.19;5072898;28;20098;-57
2024/01/06 03:05:42;;;;;;;23.50;12.18;;;;;;;3.82;100.00;100353.78;5071895;28;20053;-57
2024/01/06 03:08:12;;;;;;;23.98;12.40;;;;;;;3.73;100.00;100353.25;5073458;28;20047;-57
2024/01/06 03:10:40;;;;;;;25.35;12.95;;;;;;;3.77;100.00;100351.38;5073254;28;20062;-57
2024/01/06 03:13:08;;;;;;;23.92;12.48;;;;;;;3.77;100.00;100364.38;5073059;28;20051;-57
2024/01/06 03:15:38;;;;;;;23.25;12.77;;;;;;;3.73;100.00;100370.63;5073317;28;20403;-57
2024/01/06 03:18:06;;;;;;;22.23;12.38;;;;;;;3.75;100.00;100363.63;5073292;28;20044;-57
2024/01/06 03:20:35;;;;;;;22.38;11.68;;;;;;;3.77;100.00;100368.75;5072891;28;20060;-57
2024/01/06 03:23:03;;;;;;;23.85;12.60;;;;;;;3.83;100.00;100376.28;5073073;28;20049;-57
2024/01/06 03:25:33;;;;;;;25.80;12.38;;;;;;;3.74;100.00;100369.72;5072876;28;20045;-57
2024/01/06 03:28:02;;;;;;;21.58;12.85;;;;;;;3.75;100.00;100373.16;5073130;28;20500;-57
2024/01/06 03:30:30;;;;;;;22.10;12.35;;;;;;;3.70;100.00;100381.19;5073159;28;20048;-57
2024/01/06 03:33:00;;;;;;;23.40;12.73;;;;;;;3.68;100.00;100383.00;5071569;28;20057;-57
2024/01/06 03:35:28;;;;;;;20.13;11.55;;;;;;;3.76;100.00;100383.50;5072911;28;20051;-57
2024/01/06 03:37:56;;;;;;;23.63;11.98;;;;;;;3.70;100.00;100386.38;5071859;28;20048;-57
2024/01/06 03:40:24;;;;;;;23.38;12.45;;;;;;;3.73;100.00;100389.66;5072170;28;20048;-57
2024/01/06 03:42:53;;;;;;;22.13;11.68;;;;;;;3.67;100.00;100396.94;5068092;28;20094;-57
2024/01/06 03:45:25;;;;;;;20.98;11.90;;;;;;;3.67;100.00;100391.72;5071160;28;20066;-57
2024/01/06 03:47:54;;;;;;;22.60;12.13;;;;;;;3.69;100.00;100397.69;5072230;28;20058;-57
2024/01/06 03:50:23;;;;;;;23.35;11.48;;;;;;;3.70;100.00;100392.41;5072648;28;20040;-57
2024/01/06 03:52:52;;;;;;;21.73;10.75;;;;;;;3.76;100.00;100401.69;5071172;28;20051;-57
2024/01/06 03:55:21;;;;;;;21.88;11.73;;;;;;;3.70;100.00;100397.63;5072725;28;20055;-57
2024/01/06 03:57:49;;;;;;;19.90;10.35;;;;;;;3.70;100.00;100402.81;5071102;28;20053;-57
2024/01/06 04:00:18;;;;;;;19.85;10.52;;;;;;;3.70;100.00;100412.41;5072290;28;20051;-57
2024/01/06 04:02:46;;;;;;;20.40;10.10;;;;;;;3.67;100.00;100410.75;5072111;28;20060;-57
2024/01/06 04:05:14;;;;;;;21.92;10.45;;;;;;;3.68;100.00;100415.06;5072121;28;20072;-57
2024/01/06 04:07:44;;;;;;;19.13;10.13;;;;;;;3.62;100.00;100417.91;5072088;28;20047;-57
2024/01/06 04:10:15;;;;;;;19.95;10.50;;;;;;;3.57;100.00;100417.25;5072217;28;20106;-57
2024/01/06 04:12:43;;;;;;;17.95;10.00;;;;;;;3.61;100.00;100415.38;5070883;28;20059;-57
2024/01/06 04:15:11;;;;;;;18.67;10.07;;;;;;;3.64;100.00;100413.50;5072127;28;20044;-57
2024/01/06 04:17:41;;;;;;;21.27;10.93;;;;;;;3.65;100.00;100422.16;5068936;28;20080;-57
2024/01/06 04:20:12;;;;;;;21.55;11.23;;;;;;;3.67;100.00;100420.34;5069496;28;20040;-57
2024/01/06 04:22:39;;;;;;;23.88;12.43;;;;;;;3.62;100.00;100417.91;5068754;28;20148;-57
2024/01/06 04:25:09;;;;;;;25.08;12.60;;;;;;;3.53;100.00;100426.97;5068794;28;20110;-57
2024/01/06 04:27:40;;;;;;;;;;;;;;;3.53;100.00;100420.91;5071485;28;20066;-57
2024/01/06 04:30:09;;;;;;;23.05;12.68;;;;;;;3.49;100.00;100422.81;5071506;28;19920;-57
2024/01/06 04:32:38;;;;;;;23.00;11.90;;;;;;;3.52;100.00;100425.28;5071456;28;20407;-57
2024/01/06 04:35:09;;;;;;;22.70;12.10;;;;;;;3.52;100.00;100430.47;5072031;28;20059;-57
2024/01/06 04:37:37;;;;;;;23.55;12.95;;;;;;;3.50;100.00;100424.47;5070523;28;20045;-57
2024/01/06 04:40:07;;;;;;;22.35;12.27;;;;;;;3.53;100.00;100432.16;5072013;28;20052;-57
2024/01/06 04:42:37;;;;;;;25.58;13.15;;;;;;;3.43;100.00;100425.66;5072221;28;20041;-57
2024/01/06 04:45:09;;;;;;;23.48;12.77;;;;;;;3.45;100.00;100434.25;5071960;28;20102;-57
2024/01/06 04:47:37;;;;;;;25.25;14.02;;;;;;;3.40;100.00;100428.38;5071948;28;20539;-57
2024/01/06 04:50:07;;;;;;;23.98;13.55;;;;;;;3.42;100.00;100441.31;5077119;28;20044;-46
2024/01/06 04:52:35;;;;;;;24.75;13.68;;;;;;;3.40;100.00;100448.34;5078451;28;20075;-48
2024/01/06 04:55:04;;;;;;;25.83;13.57;;;;;;;3.40;100.00;100451.78;5078506;28;20492;-47
2024/01/06 04:57:32;;;;;;;23.58;13.45;;;;;;;3.40;100.00;100451.78;5078477;28;20230;-57
2024/01/06 05:00:01;;;;;;;23.88;12.00;;;;;;;3.34;100.00;100454.63;5078262;28;20048;-58
2024/01/06 05:02:30;;;;;;;23.50;12.20;;;;;;;3.27;100.00;100456.63;5078379;28;20507;-57
2024/01/06 05:04:58;;;;;;;26.33;12.82;;;;;;;3.22;100.00;100462.03;5078308;28;20656;-57
2024/01/06 05:07:26;;;;;;;26.67;12.50;;;;;;;3.24;100.00;100459.34;5078323;28;20047;-45
2024/01/06 05:09:55;;;;;;;24.50;12.90;;;;;;;3.19;100.00;100475.16;5076953;28;20056;-45
2024/01/06 05:12:24;;;;;;;24.77;12.95;;;;;;;3.16;100.00;100470.09;5078031;28;20091;-47
2024/01/06 05:14:53;;;;;;;23.55;12.32;;;;;;;3.16;100.00;100470.09;5078108;28;20041;-47
2024/01/06 05:17:22;;;;;;;26.48;13.52;;;;;;;3.17;100.00;100476.94;5078253;28;20040;-46
2024/01/06 05:19:51;;;;;;;22.80;12.55;;;;;;;3.20;100.00;100471.66;5078456;28;20059;-45
2024/01/06 05:22:19;;;;;;;22.15;12.63;;;;;;;3.27;100.00;100468.78;5077950;28;20361;-46
2024/01/06 05:24:47;;;;;;;22.42;11.48;;;;;;;3.22;100.00;100475.03;5078243;28;20056;-49
2024/01/06 05:27:15;;;;;;;22.05;12.73;;;;;;;3.19;100.00;100477.75;5078183;28;20044;-45
2024/01/06 05:29:48;;;;;;;23.55;12.55;;;;;;;3.13;100.00;100488.38;5078160;28;20049;-45
2024/01/06 05:32:20;;;;;;;20.65;11.45;;;;;;;3.11;100.00;100490.22;5078184;28;20041;-46
2024/01/06 05:34:49;;;;;;;23.88;12.10;;;;;;;3.13;100.00;100496.19;5078003;28;20045;-45
2024/01/06 05:37:20;;;;;;;21.90;12.32;;;;;;;3.09;100.00;100497.19;5078020;28;20514;-46
2024/01/06 05:39:49;;;;;;;22.85;12.50;;;;;;;3.11;100.00;100500.59;5076619;28;20044;-46
2024/01/06 05:42:18;;;;;;;23.83;12.10;;;;;;;3.13;100.00;100501.38;5077850;28;20041;-57
2024/01/06 05:44:48;;;;;;;22.52;12.00;;;;;;;3.16;100.00;100500.41;5078073;28;20048;-57
2024/01/06 05:47:16;;;;;;;23.85;12.57;;;;;;;3.15;100.00;100514.31;5077972;28;20589;-57
2024/01/06 05:49:45;;;;;;;21.88;12.60;;;;;;;3.15;100.00;100519.50;5077673;28;20061;-57
2024/01/06 05:52:15;;;;;;;22.92;12.18;;;;;;;3.07;100.00;100525.00;5077793;28;20072;-57
2024/01/06 05:54:44;;;;;;;21.83;11.50;;;;;;;3.09;100.00;100519.75;5077837;28;20067;-57
2024/01/06 05:57:12;;;;;;;22.58;12.05;;;;;;;3.09;100.00;100522.34;5077987;28;20518;-57
2024/01/06 05:59:40;;;;;;;25.10;12.32;;;;;;;3.07;100.00;100526.75;5077920;28;20058;-57
2024/01/06 06:02:09;;;;;;;24.15;13.40;;;;;;;3.01;100.00;100522.63;5073973;28;20041;-50
2024/01/06 06:04:37;;;;;;;23.27;12.20;;;;;;;2.95;100.00;100533.28;5074660;28;20049;-47
2024/01/06 06:07:05;;;;;;;20.67;11.60;;;;;;;2.95;100.00;100534.13;5074469;28;20041;-49
2024/01/06 06:09:35;;;;;;;24.52;12.20;;;;;;;2.99;100.00;100547.84;5072648;28;20052;-46
2024/01/06 06:12:04;;;;;;;20.38;11.52;;;;;;;3.00;100.00;100552.13;5070343;28;20041;-45
2024/01/06 06:14:32;;;;;;;19.33;10.93;;;;;;;2.95;100.00;100559.25;5073743;28;20052;-48
2024/01/06 06:17:00;;;;;;;21.42;11.90;;;;;;;2.96;100.00;100556.59;5074215;28;20072;-47
2024/01/06 06:19:31;;;;;;;20.42;11.40;;;;;;;2.99;100.00;100558.25;5074436;28;20903;-47
2024/01/06 06:22:00;;;;;;;20.50;11.52;;;;;;;3.00;100.00;100565.09;5073734;28;20488;-45
2024/01/06 06:24:29;;;;;;;20.90;11.93;;;;;;;2.96;100.00;100568.72;5074042;28;20050;-45
2024/01/06 06:27:01;;;;;;;22.25;11.77;;;;;;;3.01;100.00;100580.66;5070458;28;20644;-46
2024/01/06 06:29:30;;;;;;;17.95;10.13;;;;;;;2.98;100.00;100582.53;5071223;28;20040;-48
2024/01/06 06:31:59;;;;;;;18.63;10.00;;;;;;;2.99;100.00;100594.63;5073525;28;20505;-44
2024/01/06 06:34:27;;;;;;;17.70;9.55;;;;;;;2.96;100.00;100598.19;5071769;28;20051;-46
2024/01/06 06:36:56;;;;;;;17.98;9.57;;;;;;;2.97;100.00;100604.22;5071148;28;20083;-46
2024/01/06 06:39:24;;;;;;;17.15;10.00;;;;;;;2.93;100.00;100613.03;5073616;28;20036;-45
2024/01/06 06:41:52;;;;;;;18.67;9.85;;;;;;;2.87;100.00;100611.50;5074168;28;20553;-45
2024/01/06 06:44:23;;;;;;;20.02;10.27;;;;;;;2.82;100.00;100610.81;5073717;28;20472;-45
2024/01/06 06:46:51;;;;;;;19.30;10.80;;;;;;;2.86;100.00;100622.78;5071912;28;20106;-45
2024/01/06 06:49:19;;;;;;;17.83;9.98;;;;;;;2.85;100.00;100623.69;5068998;28;20044;-45
2024/01/06 06:51:48;;;;;;;17.35;10.10;;;;;;;2.78;100.00;100623.09;5073020;28;20045;-46
2024/01/06 06:54:17;;;;;;;17.50;10.40;;;;;;;2.75;100.00;100632.72;5073634;28;20040;-45
2024/01/06 06:56:45;;;;;;;20.48;11.32;;;;;;;2.73;100.00;100635.38;5073481;28;20503;-47
2024/01/06 06:59:14;;;;;;;20.60;10.88;;;;;;;2.66;100.00;100644.31;5073719;28;20086;-46
2024/01/06 07:01:43;;;;;;;19.02;11.13;;;;;;;2.67;100.00;100648.56;5070864;28;20407;-45
2024/01/06 07:04:11;;;;;;;20.02;10.70;;;;;;;2.64;100.00;100643.50;5069781;28;20052;-46
2024/01/06 07:06:39;;;;;;;18.85;11.27;;;;;;;2.72;100.00;100640.63;5073034;28;20052;-44
2024/01/06 07:09:08;;;;;;;18.75;10.13;;;;;;;2.73;100.00;100650.09;5071857;28;20411;-44
2024/01/06 07:11:37;;;;;;;19.40;11.32;;;;;;;2.65;100.00;100660.78;5071734;28;20131;-46
2024/01/06 07:14:05;;;;;;;17.27;10.65;;;;;;;2.63;100.00;100670.34;5072389;28;20051;-45
2024/01/06 07:16:33;;;;;;;19.40;10.40;;;;;;;2.58;100.00;100675.72;5073106;28;20048;-44
2024/01/06 07:19:02;;;;;;;17.17;10.02;;;;;;;2.56;100.00;100684.47;5072993;28;20059;-45
2024/01/06 07:21:34;;;;;;;18.05;10.93;;;;;;;2.56;100.00;100687.06;5073260;28;20051;-47
2024/01/06 07:24:02;;;;;;;18.02;10.43;;;;;;;2.56;100.00;100687.91;5072715;28;20048;-48
2024/01/06 07:26:30;;;;;;;20.40;10.15;;;;;;;2.60;100.00;100684.28;5072886;28;20051;-45
2024/01/06 07:28:58;;;;;;;19.40;10.65;;;;;;;2.57;100.00;100686.16;5072850;28;20044;-45
2024/01/06 07:31:26;;;;;;;19.83;11.77;;;;;;;2.49;100.00;100692.44;5073125;28;20558;-46
2024/01/06 07:33:58;;;;;;;16.90;10.13;;;;;;;2.52;100.00;100687.16;5072745;28;20037;-45
2024/01/06 07:36:27;;;;;;;19.13;10.88;;;;;;;2.52;100.00;100692.38;5071457;28;20052;-47
2024/01/06 07:38:56;;;;;;;17.33;10.38;;;;;;;2.52;100.00;100697.56;5072613;28;20435;-49
2024/01/06 07:41:24;;;;;;;18.30;10.05;;;;;;;2.52;100.00;100702.75;5072922;28;20415;-46
2024/01/06 07:43:52;;;;;;;17.83;11.57;;;;;;;2.54;100.00;100707.88;5072396;28;20055;-45
2024/01/06 07:46:20;;;;;;;17.63;10.07;;;;;;;2.52;100.00;100710.53;5072581;28;20040;-46
2024/01/06 07:48:48;;;;;;;18.17;10.48;;;;;;;2.58;100.00;100716.41;5071968;28;20058;-46
2024/01/06 07:51:17;;;;;;;17.08;10.10;;;;;;;2.51;100.00;100721.81;5072434;28;20044;-56
2024/01/06 07:53:46;;;;;;;16.92;10.55;;;;;;;2.50;100.00;100727.91;5072348;28;20052;-56
2024/01/06 07:56:15;;;;;;;16.52;10.45;;;;;;;2.47;100.00;100725.41;5069587;28;20084;-56
2024/01/06 07:58:43;;;;;;;18.50;11.15;;;;;;;2.43;100.00;100729.00;5068703;28;20048;-57
2024/01/06 08:01:14;;;;;;;17.35;10.18;;;;;;;2.45;100.00;100737.56;5068983;28;20074;-57
2024/01/06 08:03:43;;;;;;;15.48;9.43;;;;;;;2.44;100.00;100741.09;5069064;28;20071;-56
2024/01/06 08:06:15;;;;;;;17.20;10.10;;;;;;;2.36;100.00;100753.47;5071285;28;20048;-56
2024/01/06 08:08:45;;;;;;;16.13;10.15;;;;;;;2.32;100.00;100752.72;5072428;28;20044;-56
2024/01/06 08:11:15;;;;;;;16.63;9.55;;;;;;;2.33;100.00;100767.41;5071974;28;20053;-57
2024/01/06 08:13:43;;;;;;;16.15;9.13;;;;;;;2.25;100.00;100760.75;5066913;28;20071;-45
2024/01/06 08:16:11;;;;;;;16.33;9.63;;;;;;;2.29;100.00;100762.34;5070088;28;20575;-55
2024/01/06 08:18:40;;;;;;;15.77;9.00;;;;;;;2.26;100.00;100767.63;5072095;28;20454;-48
2024/01/06 08:21:08;;;;;;;18.08;9.55;;;;;;;2.28;100.00;100776.25;5071882;28;20098;-47
2024/01/06 08:23:39;;;;;;;16.10;9.05;;;;;;;2.28;100.00;100784.03;5071474;28;20055;-48
2024/01/06 08:26:07;;;;;;;20.27;10.07;;;;;;;2.28;100.00;100784.03;5072305;28;20555;-47
2024/01/06 08:28:41;;;;;;;18.30;10.00;;;;;;;2.22;100.00;100790.22;5072009;28;20049;-48
2024/01/06 08:31:09;;;;;;;19.05;9.40;;;;;;;2.32;100.00;100796.84;5071887;28;20068;-47
2024/01/06 08:33:38;;;;;;;19.33;10.50;;;;;;;2.18;100.00;100802.47;5071916;28;20040;-47
2024/01/06 08:36:07;;;;;;;19.75;10.52;;;;;;;2.23;100.00;100804.06;5068644;28;20052;-45
2024/01/06 08:38:35;;;;;;;18.98;10.10;;;;;;;2.28;100.00;100803.03;5068857;28;20452;-44
2024/01/06 08:41:04;;;;;;;19.02;9.65;;;;;;;2.29;100.00;100803.88;5071779;28;20053;-46
2024/01/06 08:43:32;;;;;;;19.08;11.18;;;;;;;2.30;100.00;100815.94;5071766;28;20051;-44
2024/01/06 08:46:02;;;;;;;19.08;10.88;;;;;;;2.22;100.00;100817.94;5071804;28;20083;-46
2024/01/06 08:48:30;;;;;;;21.88;10.90;;;;;;;2.14;100.00;100818.16;5068159;28;20052;-44
2024/01/06 08:51:02;;;;;;;;;;;;;;;2.15;100.00;100825.91;5070083;28;20055;-45
2024/01/06 08:53:30;;;;;;;18.63;9.60;;;;;;;2.19;100.00;100830.09;5071704;28;20180;-47
2024/01/06 08:55:59;;;;;;;17.42;9.88;;;;;;;2.23;100.00;100824.84;5071607;28;20052;-46
2024/01/06 08:58:27;;;;;;;20.25;11.40;;;;;;;2.22;100.00;100828.31;5071796;28;20040;-45
2024/01/06 09:00:55;;;;;;;19.80;11.25;;;;;;;2.17;100.00;100837.09;5071902;28;20044;-45
2024/01/06 09:03:25;;;;;;;21.13;12.05;;;;;;;2.18;100.00;100838.81;5071819;28;20048;-45
2024/01/06 09:05:56;;;;;;;20.90;10.40;;;;;;;2.26;100.00;100842.91;5071765;28;20040;-45
2024/01/06 09:08:25;;;;;;;18.60;10.80;;;;;;;2.25;100.00;100848.97;5071545;28;20119;-45
2024/01/06 09:10:56;;;;;;;21.45;10.73;;;;;;;2.27;100.00;100855.81;5071384;28;20044;-44
2024/01/06 09:13:25;;;;;;;19.65;10.45;;;;;;;2.25;100.00;100859.38;5071330;28;20551;-45
2024/01/06 09:15:54;;;;;;;19.73;10.27;;;;;;;2.28;100.00;100860.13;5070037;28;20063;-45
2024/01/06 09:18:26;;;;;;;20.73;10.73;;;;;;;2.30;100.00;100860.06;5071417;28;20055;-45
2024/01/06 09:20:53;;;;;;;21.63;11.52;;;;;;;2.23;100.00;100869.78;5071286;28;20435;-45
2024/01/06 09:23:21;;;;;;;20.42;10.75;;;;;;;2.18;100.00;100871.66;5071401;28;20071;-45
2024/01/06 09:25:52;;;;;;;21.77;11.23;;;;;;;2.13;100.00;100876.16;5069937;28;20059;-46
2024/01/06 09:28:21;;;;;;;20.90;11.48;;;;;;;2.10;100.00;100881.41;5071414;28;20062;-47
2024/01/06 09:30:52;;;;;;;20.92;11.32;;;;;;;2.08;100.00;100881.47;5071368;28;20117;-46
2024/01/06 09:33:20;;;;;;;23.95;12.45;;;;;;;2.12;100.00;100885.69;5070193;28;20147;-46
2024/01/06 09:35:50;;;;;;;19.92;10.50;;;;;;;1.99;100.00;100885.19;5071974;28;20045;-44
2024/01/06 09:38:19;;;;;;;22.98;12.18;;;;;;;1.95;100.00;100890.50;5075103;28;20579;-45
2024/01/06 09:40:49;;;;;;;23.08;11.57;;;;;;;1.95;100.00;100895.69;5071935;28;20048;-46
2024/01/06 09:43:17;;;;;;;21.70;10.63;;;;;;;1.98;100.00;100903.41;5070681;28;20045;-46
2024/01/06 09:45:49;;;;;;;23.40;11.95;;;;;;;1.96;100.00;100903.41;5070751;28;20040;-46
2024/01/06 09:48:18;;;;;;;21.88;11.77;;;;;;;2.00;100.00;100909.38;5073734;28;20724;-48
2024/01/06 09:50:48;;;;;;;21.40;12.30;;;;;;;2.00;100.00;100912.84;5074662;28;20519;-47
2024/01/06 09:53:19;;;;;;;23.45;12.50;;;;;;;1.95;100.00;100916.44;5074746;28;20060;-46
2024/01/06 09:55:51;;;;;;;23.70;13.52;;;;;;;1.96;100.00;100920.75;5074729;28;20044;-47
2024/01/06 09:58:22;;;;;;;26.77;12.82;;;;;;;2.00;100.00;100925.81;5074692;28;20048;-45
2024/01/06 10:00:51;;;;;;;23.38;13.48;;;;;;;1.96;100.00;100926.78;5074699;28;20044;-49
2024/01/06 10:03:19;;;;;;;25.58;13.45;;;;;;;2.01;100.00;100931.84;5074645;28;20060;-49
2024/01/06 10:05:48;;;;;;;24.23;13.00;;;;;;;2.03;100.00;100922.25;5073030;28;20044;-44
2024/01/06 10:08:18;;;;;;;27.75;13.68;;;;;;;2.03;100.00;100930.03;5072887;28;20053;-46
2024/01/06 10:10:46;;;;;;;27.05;13.20;;;;;;;2.03;100.00;100933.50;5074411;28;20044;-46
2024/01/06 10:13:18;;;;;;;24.15;13.07;;;;;;;2.11;100.00;100943.66;5074538;28;20464;-45
2024/01/06 10:15:46;;;;;;;24.70;12.73;;;;;;;2.07;100.00;100941.19;5074215;28;20100;-45
2024/01/06 10:18:14;;;;;;;23.50;12.98;;;;;;;2.05;100.00;100943.84;5073088;28;20078;-46
2024/01/06 10:20:45;;;;;;;25.70;12.85;;;;;;;2.10;100.00;100943.69;5074220;28;20088;-44
2024/01/06 10:23:14;;;;;;;23.70;13.85;;;;;;;2.12;100.00;100942.75;5074171;28;20902;-44
2024/01/06 10:25:44;;;;;;;24.13;13.35;;;;;;;2.14;100.00;100941.00;5073904;28;20554;-44
2024/01/06 10:28:13;;;;;;;22.90;13.25;;;;;;;2.12;100.00;100958.34;5074034;28;20059;-46
2024/01/06 10:30:42;;;;;;;20.88;12.27;;;;;;;2.14;100.00;100953.09;5072775;28;20075;-47
2024/01/06 10:33:11;;;;;;;23.25;12.65;;;;;;;2.12;100.00;100955.75;5074262;28;20045;-44
2024/01/06 10:35:40;;;;;;;21.30;11.77;;;;;;;2.02;100.00;100959.50;5073841;28;20166;-45
2024/01/06 10:38:08;;;;;;;19.25;11.75;;;;;;;2.03;100.00;100956.00;5073858;28;20142;-45
2024/01/06 10:40:36;;;;;;;20.05;11.07;;;;;;;2.01;100.00;100961.22;5071700;28;20044;-45
2024/01/06 10:43:07;;;;;;;23.17;11.80;;;;;;;2.06;100.00;100958.53;5069710;28;20057;-45
2024/01/06 10:45:36;;;;;;;18.20;10.65;;;;;;;2.02;100.00;100956.91;5073661;28;20519;-45
2024/01/06 10:48:07;;;;;;;20.27;11.25;;;;;;;2.09;100.00;100961.03;5073422;28;20040;-44
2024/01/06 10:50:35;;;;;;;20.58;10.95;;;;;;;2.09;100.00;100966.22;5073457;28;20794;-44
2024/01/06 10:53:04;;;;;;;20.63;11.27;;;;;;;2.09;100.00;100966.22;5070012;28;20831;-46
2024/01/06 10:55:33;;;;;;;20.70;11.82;;;;;;;2.14;100.00;100969.53;5070761;28;20514;-45
2024/01/06 10:58:07;;;;;;;24.30;13.90;;;;;;;2.11;100.00;100977.38;5073432;28;20102;-46
2024/01/06 11:00:35;;;;;;;20.23;12.18;;;;;;;2.08;100.00;100982.66;5073251;28;20048;-45
2024/01/06 11:03:06;;;;;;;21.90;12.10;;;;;;;2.11;100.00;100986.94;5071562;28;20117;-56
2024/01/06 11:05:34;;;;;;;20.08;11.35;;;;;;;2.08;100.00;100985.25;5073391;28;20041;-56
2024/01/06 11:08:04;;;;;;;17.77;10.50;;;;;;;2.09;100.00;100989.56;5070855;28;20048;-56
2024/01/06 11:10:33;;;;;;;20.52;10.93;;;;;;;1.99;100.00;100996.75;5070131;28;20053;-56
2024/01/06 11:13:13;;;;;;;18.33;10.35;;;;;;;2.05;100.00;100989.69;5067809;28;20059;-56
2024/01/06 11:15:43;;;;;;;20.08;11.38;;;;;;;2.05;100.00;100994.91;5069837;28;20041;-56
2024/01/06 11:18:33;;;;;;;17.10;10.27;;;;;;;2.02;100.00;100999.25;5069823;28;20448;-56
2024/01/06 11:21:21;;;;;;;19.80;11.23;;;;;;;1.98;100.00;101001.97;5070085;28;20119;-56